Time;durP1;ratioP1;P1;durP2;ratioP2;P2;SDS_P1;SDS_P2;PMS_P1;PMS_P2;Temp;Humidity;BMP_temperature;BMP_pressure;BME280_temperature;BME280_humidity;BME280_pressure;Samples;Min_cycle;Max_cycle;Signal;HPM_P1;HPM_P2
2022/11/14 00:01:19;;;;;;;0.60;0.50;;;;;;;2.02;66.04;99904.91;6246362;23;20066;-89
2022/11/14 00:04:04;;;;;;;1.05;0.68;;;;;;;2.39;65.23;99960.31;6218995;23;20042;-89
2022/11/14 00:06:49;;;;;;;0.90;0.70;;;;;;;2.54;65.04;99985.66;6198677;23;20070;-88
2022/11/14 00:12:20;;;;;;;1.50;0.45;;;;;;;2.33;64.23;99983.66;6246340;23;20105;-88
2022/11/14 00:15:05;;;;;;;1.02;0.60;;;;;;;2.31;64.44;99956.09;6197697;23;20140;-86
2022/11/14 00:17:50;;;;;;;0.38;0.38;;;;;;;2.51;64.42;99991.53;6218847;23;20020;-89
2022/11/14 00:20:35;;;;;;;0.65;0.65;;;;;;;2.81;64.66;100039.84;6219400;23;20118;-90
2022/11/14 00:23:20;;;;;;;1.27;0.68;;;;;;;2.37;65.35;99987.50;6197899;23;20031;-91
2022/11/14 00:26:05;;;;;;;0.90;0.68;;;;;;;2.71;65.64;99993.75;6198276;23;20016;-87
2022/11/14 00:28:50;;;;;;;1.13;0.55;;;;;;;2.62;65.37;99989.84;6198115;23;20095;-89
2022/11/14 00:31:34;;;;;;;1.08;0.68;;;;;;;2.67;66.05;100018.81;6218991;23;20462;-89
2022/11/14 00:34:19;;;;;;;4.70;0.57;;;;;;;2.46;65.39;99985.25;6197619;23;20020;-87
2022/11/14 00:37:03;;;;;;;1.58;0.73;;;;;;;2.09;65.72;99918.25;6219187;23;20012;-88
2022/11/14 00:39:48;;;;;;;1.40;0.50;;;;;;;2.47;66.40;99995.78;6219580;23;20015;-89
2022/11/14 00:42:33;;;;;;;0.70;0.50;;;;;;;2.16;65.69;99958.53;6197613;23;20020;-88
2022/11/14 00:45:18;;;;;;;0.93;0.70;;;;;;;2.08;65.97;99952.44;6198268;23;20020;-89
2022/11/14 00:48:02;;;;;;;1.63;0.65;;;;;;;2.50;65.84;100019.59;6199692;23;20069;-91
2022/11/14 00:50:47;;;;;;;6.50;1.10;;;;;;;2.72;65.43;100033.22;6211738;23;20020;-91
2022/11/14 00:53:32;;;;;;;1.08;0.57;;;;;;;2.39;66.19;99968.41;6197583;23;20016;-89
2022/11/14 00:56:16;;;;;;;1.90;0.60;;;;;;;2.26;65.14;99943.34;6197998;23;20043;-90
2022/11/14 00:59:00;;;;;;;1.48;0.70;;;;;;;2.69;65.51;100022.91;6199423;23;20480;-88
2022/11/14 01:01:45;;;;;;;0.52;0.52;;;;;;;2.70;65.16;100026.41;6222839;23;20350;-88
2022/11/14 01:04:30;;;;;;;1.27;0.65;;;;;;;2.59;65.24;100028.13;6244391;23;20055;-89
2022/11/14 01:10:03;;;;;;;1.20;0.57;;;;;;;2.62;65.90;100022.25;6243965;23;20016;-87
2022/11/14 01:12:48;;;;;;;1.45;0.70;;;;;;;2.27;65.89;99976.53;6244092;23;20102;-87
2022/11/14 01:15:32;;;;;;;3.20;0.90;;;;;;;2.41;66.87;100004.84;6222792;23;20511;-89
2022/11/14 01:18:19;;;;;;;1.10;0.63;;;;;;;2.81;67.46;100068.72;6222864;23;20016;-88
2022/11/14 01:21:09;;;;;;;5.00;0.60;;;;;;;2.72;67.01;100052.13;6222817;23;20018;-90
2022/11/14 01:23:54;;;;;;;2.88;0.80;;;;;;;2.75;66.81;100034.63;6222043;23;20039;-88
2022/11/14 01:26:40;;;;;;;1.85;0.77;;;;;;;2.36;66.64;99975.09;6223142;23;20024;-87
2022/11/14 01:32:12;;;;;;;2.60;0.95;;;;;;;2.66;66.11;100022.56;6245299;23;20046;-87
2022/11/14 01:34:56;;;;;;;2.92;0.85;;;;;;;2.52;66.33;100038.25;6222918;23;20027;-89
2022/11/14 01:40:29;;;;;;;1.13;0.65;;;;;;;2.58;65.02;100039.97;6244114;23;20095;-89
2022/11/14 01:43:36;;;;;;;1.42;0.70;;;;;;;2.96;64.46;100077.09;6245035;23;20027;-88
2022/11/14 01:46:33;;;;;;;1.02;0.75;;;;;;;2.89;63.45;100081.03;6222566;23;20030;-88
2022/11/14 01:49:36;;;;;;;0.85;0.70;;;;;;;2.76;63.51;100058.66;6222270;23;20169;-88
2022/11/14 01:52:26;;;;;;;1.48;0.60;;;;;;;3.01;62.87;100106.91;6222422;23;20450;-86
2022/11/14 01:55:10;;;;;;;2.05;0.60;;;;;;;2.25;64.01;100002.94;6244193;23;20446;-90
2022/11/14 01:57:56;;;;;;;3.50;0.57;;;;;;;2.58;63.36;100081.28;6222146;23;20016;-89
2022/11/14 02:00:43;;;;;;;2.67;0.63;;;;;;;2.52;63.74;100082.25;6222261;23;20102;-89
2022/11/14 02:03:28;;;;;;;3.42;0.60;;;;;;;2.28;62.54;100062.59;6222214;23;20028;-87
2022/11/14 02:06:15;;;;;;;3.22;0.70;;;;;;;2.36;63.52;100056.03;6235273;23;20027;-87
2022/11/14 02:09:03;;;;;;;0.95;0.50;;;;;;;2.40;64.31;100042.88;6222909;23;20093;-89
2022/11/14 02:12:11;;;;;;;2.42;0.80;;;;;;;2.52;64.39;100082.25;6244308;23;20027;-89
2022/11/14 02:14:58;;;;;;;0.70;0.55;;;;;;;2.24;66.09;100068.75;6222687;23;20020;-87
2022/11/14 02:17:43;;;;;;;1.00;0.65;;;;;;;2.18;67.16;100092.09;6222809;23;20008;-86
2022/11/14 02:20:32;;;;;;;1.25;0.80;;;;;;;1.94;67.07;100050.88;6243595;23;20027;-89
2022/11/14 02:26:08;;;;;;;3.53;0.88;;;;;;;2.12;68.40;100093.06;6243907;23;20020;-90
2022/11/14 02:28:55;;;;;;;1.65;0.80;;;;;;;2.42;69.52;100137.88;6244286;23;20016;-90
2022/11/14 02:31:39;;;;;;;1.98;0.80;;;;;;;2.01;69.82;100075.00;6222488;23;20071;-86
2022/11/14 02:34:24;;;;;;;1.65;0.80;;;;;;;1.79;67.69;100067.56;6243712;23;20020;-90
2022/11/14 02:37:08;;;;;;;1.05;0.75;;;;;;;2.23;66.85;100116.47;6222755;23;20098;-90
2022/11/14 02:39:53;;;;;;;5.03;0.82;;;;;;;1.78;65.21;100043.53;6221620;23;20016;-87
2022/11/14 02:42:39;;;;;;;2.00;0.80;;;;;;;2.27;64.44;100117.63;6222361;23;20340;-89
2022/11/14 02:45:23;;;;;;;1.20;0.82;;;;;;;2.39;63.59;100112.22;6222429;23;20050;-89
2022/11/14 02:48:09;;;;;;;2.60;1.00;;;;;;;2.47;63.71;100138.81;6222068;23;20098;-87
2022/11/14 02:56:26;;;;;;;4.22;0.90;;;;;;;2.20;55.81;100081.06;6243820;23;20047;-88
2022/11/14 02:59:10;;;;;;;2.50;0.80;;;;;;;1.95;53.70;100081.34;6223063;23;20048;-88
2022/11/14 03:01:55;;;;;;;5.50;0.93;;;;;;;2.17;53.37;100128.22;6224295;23;20454;-89
2022/11/14 03:04:40;;;;;;;2.90;0.82;;;;;;;2.25;53.33;100154.00;6224165;23;20031;-90
2022/11/14 03:07:24;;;;;;;5.00;0.85;;;;;;;2.16;53.48;100123.06;6224254;23;20540;-89
2022/11/14 03:10:10;;;;;;;2.50;0.90;;;;;;;1.95;53.23;100092.94;6224091;23;20481;-88
2022/11/14 03:15:41;;;;;;;4.00;0.88;;;;;;;2.43;51.95;100193.50;6245444;23;20071;-88
2022/11/14 03:18:26;;;;;;;3.60;1.17;;;;;;;2.02;52.69;100153.00;6224212;23;20062;-87
2022/11/14 03:21:19;;;;;;;1.52;1.00;;;;;;;1.91;51.82;100142.19;6229775;23;20004;-90
2022/11/14 03:24:04;;;;;;;2.13;0.70;;;;;;;2.02;51.78;100144.06;6230479;23;20074;-90
2022/11/14 03:26:49;;;;;;;4.35;1.02;;;;;;;2.06;51.88;100161.44;6224395;23;20023;-88
2022/11/14 03:29:33;;;;;;;1.85;0.75;;;;;;;1.61;52.16;100097.31;6245510;23;20012;-87
2022/11/14 03:32:18;;;;;;;1.75;0.82;;;;;;;1.64;52.11;100121.94;6225052;23;20015;-88
2022/11/14 03:35:03;;;;;;;2.47;0.70;;;;;;;1.62;51.84;100090.88;6252337;23;20016;-88
2022/11/14 03:37:47;;;;;;;5.88;0.93;;;;;;;2.04;53.32;100145.47;6253430;23;20027;-87
2022/11/14 03:40:32;;;;;;;1.40;0.63;;;;;;;2.00;52.55;100138.91;6249874;23;20023;-89
2022/11/14 03:43:18;;;;;;;3.83;0.80;;;;;;;1.69;51.87;100104.22;6224832;23;20046;-87
2022/11/14 03:46:03;;;;;;;4.07;0.90;;;;;;;1.96;51.90;100155.81;6224970;23;20016;-87
2022/11/14 03:48:48;;;;;;;0.95;0.68;;;;;;;1.82;51.75;100139.88;6246642;23;20024;-87
2022/11/14 03:51:33;;;;;;;1.20;0.70;;;;;;;2.23;51.25;100220.88;6244392;23;20038;-88
2022/11/14 03:54:18;;;;;;;4.75;1.25;;;;;;;1.98;51.72;100177.94;6223179;23;20020;-87
2022/11/14 03:57:03;;;;;;;4.72;1.27;;;;;;;1.96;52.02;100145.84;6223978;23;20433;-87
2022/11/14 04:02:32;;;;;;;3.60;0.60;;;;;;;1.67;51.07;100160.25;6244347;23;20012;-89
2022/11/14 04:05:16;;;;;;;9.20;1.30;;;;;;;2.01;51.34;100224.16;6223618;23;20020;-88
2022/11/14 04:08:06;;;;;;;7.20;0.77;;;;;;;1.81;51.51;100184.03;6223870;23;20047;-89
2022/11/14 04:10:51;;;;;;;3.80;0.85;;;;;;;1.64;51.39;100189.31;6223438;23;20449;-86
2022/11/14 04:13:54;;;;;;;1.58;0.63;;;;;;;1.73;51.92;100175.50;6251254;23;20027;-89
2022/11/14 04:16:42;;;;;;;4.00;0.90;;;;;;;1.61;52.01;100203.25;6255045;23;20020;-88
2022/11/14 04:19:33;;;;;;;9.32;0.90;;;;;;;1.70;52.00;100186.75;6228621;23;20090;-89
2022/11/14 04:22:17;;;;;;;10.63;1.13;;;;;;;1.75;53.24;100159.91;6233472;23;20020;-90
2022/11/14 04:25:03;;;;;;;8.35;1.25;;;;;;;2.04;52.45;100210.19;6228679;23;20016;-90
2022/11/14 04:27:48;;;;;;;1.05;0.60;;;;;;;1.57;51.61;100177.00;6226510;23;20437;-87
2022/11/14 04:30:32;;;;;;;5.28;1.38;;;;;;;1.56;51.96;100176.19;6228344;23;20016;-91
2022/11/14 04:33:25;;;;;;;3.58;1.20;;;;;;;1.81;52.38;100204.78;6229717;23;20089;-91
2022/11/14 04:36:10;;;;;;;2.20;0.93;;;;;;;1.56;51.40;100224.69;6208635;23;20545;-89
2022/11/14 04:38:54;;;;;;;2.00;0.90;;;;;;;1.72;51.79;100222.34;6261252;23;20016;-88
2022/11/14 04:41:39;;;;;;;3.53;1.10;;;;;;;1.63;51.39;100208.41;6223461;23;20016;-87
2022/11/14 04:44:24;;;;;;;3.75;1.13;;;;;;;1.58;51.79;100206.41;6222378;23;20024;-87
2022/11/14 04:47:08;;;;;;;2.63;0.90;;;;;;;1.45;52.46;100182.38;6245233;23;20020;-88
2022/11/14 04:49:53;;;;;;;5.25;1.30;;;;;;;1.55;53.04;100225.72;6224463;23;20023;-87
2022/11/14 04:52:37;;;;;;;9.70;1.50;;;;;;;1.64;52.39;100223.53;6223262;23;20020;-88
2022/11/14 04:55:22;;;;;;;5.75;1.42;;;;;;;1.65;52.73;100222.47;6223143;23;20103;-88
2022/11/14 04:58:08;;;;;;;7.38;1.55;;;;;;;1.23;52.31;100197.44;6223514;23;20012;-89
2022/11/14 05:00:52;;;;;;;5.60;1.55;;;;;;;1.17;52.97;100181.13;6244733;23;20042;-88
2022/11/14 05:03:37;;;;;;;7.20;1.50;;;;;;;1.27;52.39;100180.59;6244942;23;20027;-89
2022/11/14 05:06:22;;;;;;;6.88;1.20;;;;;;;1.70;51.90;100238.78;6223693;23;20077;-87
2022/11/14 05:09:07;;;;;;;4.47;1.60;;;;;;;1.57;52.21;100215.56;6246674;23;20034;-89
2022/11/14 05:11:51;;;;;;;4.95;1.40;;;;;;;1.48;52.08;100227.72;6223029;23;20457;-89
2022/11/14 05:14:36;;;;;;;5.82;1.30;;;;;;;1.43;52.10;100249.16;6221973;23;20437;-85
2022/11/14 05:17:21;;;;;;;3.38;1.40;;;;;;;1.47;51.23;100262.97;6245351;23;20044;-87
2022/11/14 05:20:06;;;;;;;3.17;1.35;;;;;;;1.21;51.21;100245.31;6243566;23;20024;-88
2022/11/14 05:22:55;;;;;;;1.90;1.30;;;;;;;1.44;51.20;100277.72;6243391;23;20026;-86
2022/11/14 05:25:39;;;;;;;4.03;1.63;;;;;;;1.39;52.02;100277.56;6243895;23;20020;-87
2022/11/14 05:28:24;;;;;;;2.92;1.48;;;;;;;1.31;51.74;100270.66;6243790;23;20015;-88
2022/11/14 05:31:12;;;;;;;3.10;1.27;;;;;;;1.21;51.40;100259.59;6222019;23;20098;-87
2022/11/14 05:33:57;;;;;;;7.75;2.13;;;;;;;1.47;51.49;100290.75;6222164;23;20019;-87
2022/11/14 05:36:42;;;;;;;6.80;1.75;;;;;;;1.36;51.28;100288.84;6244926;23;20016;-87
2022/11/14 05:39:26;;;;;;;9.80;1.58;;;;;;;1.22;50.92;100279.28;6243700;23;20027;-88
2022/11/14 05:42:11;;;;;;;4.80;1.58;;;;;;;1.42;51.51;100314.84;6222931;23;20034;-88
2022/11/14 05:44:55;;;;;;;14.10;1.65;;;;;;;1.53;51.30;100314.06;6222251;23;20048;-88
2022/11/14 05:47:40;;;;;;;4.93;1.42;;;;;;;1.30;51.42;100322.88;6221806;23;20028;-88
2022/11/14 05:50:24;;;;;;;13.65;2.00;;;;;;;1.32;51.79;100288.44;6221950;23;20074;-88
2022/11/14 05:53:09;;;;;;;9.45;2.00;;;;;;;1.32;53.28;100288.44;6223566;23;20020;-88
2022/11/14 05:55:54;;;;;;;12.63;2.45;;;;;;;1.34;51.81;100301.69;6234181;23;20016;-88
2022/11/14 05:58:38;;;;;;;26.08;2.67;;;;;;;1.41;51.95;100302.44;6244414;23;20027;-89
2022/11/14 06:01:23;;;;;;;21.98;2.83;;;;;;;1.59;52.74;100333.88;6199249;23;20023;-87
2022/11/14 06:04:08;;;;;;;19.23;3.30;;;;;;;1.38;52.67;100294.81;6219782;23;20055;-89
2022/11/14 06:09:36;;;;;;;9.32;1.90;;;;;;;1.55;53.43;100313.84;6218999;23;20524;-88
2022/11/14 06:12:22;;;;;;;10.35;1.90;;;;;;;1.78;52.31;100353.53;6219272;23;20154;-89
2022/11/14 06:15:07;;;;;;;23.35;2.33;;;;;;;1.63;51.06;100349.38;6197884;23;20023;-88
2022/11/14 06:17:53;;;;;;;24.90;2.63;;;;;;;1.10;50.29;100298.91;6197901;23;20027;-86
2022/11/14 06:20:37;;;;;;;16.05;2.00;;;;;;;1.33;50.31;100343.97;6219041;23;20023;-87
2022/11/14 06:23:22;;;;;;;23.33;2.80;;;;;;;1.36;50.62;100318.47;6197047;23;20303;-87
2022/11/14 06:26:20;;;;;;;28.65;3.30;;;;;;;1.67;51.56;100367.78;6197063;23;20016;-87
2022/11/14 06:29:06;;;;;;;48.30;4.40;;;;;;;1.54;50.47;100326.50;6218279;23;20098;-88
2022/11/14 06:34:38;;;;;;;5.30;2.35;;;;;;;1.36;53.17;100380.44;6219842;23;20016;-87
2022/11/14 06:40:10;;;;;;;27.95;4.65;;;;;;;1.23;53.68;100343.69;6220544;23;20107;-90
2022/11/14 06:42:55;;;;;;;3.92;1.48;;;;;;;1.30;53.38;100386.72;6225203;23;20019;-88
2022/11/14 06:45:40;;;;;;;28.25;3.30;;;;;;;1.10;52.83;100344.69;6247860;23;20044;-88
2022/11/14 06:48:25;;;;;;;14.70;2.97;;;;;;;1.32;53.52;100387.28;6221782;23;20016;-88
2022/11/14 06:56:48;;;;;;;42.97;4.35;;;;;;;1.49;54.00;100414.44;6246854;23;20058;-88
2022/11/14 06:59:34;;;;;;;27.73;3.38;;;;;;;1.34;53.18;100394.13;6229569;23;20020;-90
2022/11/14 07:02:19;;;;;;;24.50;4.55;;;;;;;1.50;53.38;100408.84;6246281;23;20020;-86
2022/11/14 07:05:04;;;;;;;12.35;1.65;;;;;;;1.34;52.20;100393.28;6245744;23;20012;-87
2022/11/14 07:10:33;;;;;;;16.05;2.80;;;;;;;1.22;52.95;100422.00;6255045;23;20016;-86
2022/11/14 07:13:18;;;;;;;15.88;2.45;;;;;;;1.10;53.11;100381.56;6250370;23;20336;-88
2022/11/14 07:16:04;;;;;;;59.72;4.82;;;;;;;1.30;51.57;100419.84;6225160;23;20020;-89
2022/11/14 07:18:49;;;;;;;23.10;2.50;;;;;;;1.02;52.01;100414.97;6245773;23;20012;-89
2022/11/14 07:21:34;;;;;;;18.23;3.30;;;;;;;0.98;52.27;100397.63;6225625;23;20023;-89
2022/11/14 07:24:19;;;;;;;9.57;1.80;;;;;;;1.06;51.77;100412.66;6224357;23;20078;-88
2022/11/14 07:27:07;;;;;;;50.05;4.97;;;;;;;1.12;52.07;100414.47;6245516;23;20108;-88
2022/11/14 07:35:27;;;;;;;15.02;2.08;;;;;;;1.36;51.13;100405.50;6245707;23;20043;-89
2022/11/14 07:38:12;;;;;;;18.75;1.92;;;;;;;1.50;50.76;100461.94;6246355;23;20075;-90
2022/11/14 07:41:08;;;;;;;27.30;3.20;;;;;;;1.62;51.70;100450.16;6224755;23;20023;-88
2022/11/14 07:43:52;;;;;;;24.15;4.18;;;;;;;1.39;50.64;100423.06;6249182;23;20102;-88
2022/11/14 07:46:40;;;;;;;48.53;4.30;;;;;;;1.44;50.18;100442.09;6245263;23;20019;-88
2022/11/14 07:49:24;;;;;;;17.88;2.10;;;;;;;1.37;50.03;100427.88;6246061;23;20012;-89
2022/11/14 07:52:09;;;;;;;18.42;2.78;;;;;;;1.58;50.44;100440.88;6224223;23;20016;-90
2022/11/14 07:54:54;;;;;;;26.92;3.90;;;;;;;1.50;49.58;100411.53;6245297;23;20020;-89
2022/11/14 07:57:42;;;;;;;24.75;2.80;;;;;;;1.65;48.98;100436.22;6246592;23;20012;-90
2022/11/14 08:00:27;;;;;;;49.95;4.72;;;;;;;1.92;48.86;100456.63;6244485;23;20095;-89
2022/11/14 08:03:12;;;;;;;47.65;4.75;;;;;;;1.63;48.64;100408.69;6245424;23;20051;-91
2022/11/14 08:06:06;;;;;;;63.42;5.85;;;;;;;1.91;48.77;100449.59;6224418;23;20488;-92
2022/11/14 08:08:51;;;;;;;27.35;3.53;;;;;;;1.62;48.07;100462.78;6245394;23;20485;-87
2022/11/14 08:11:47;;;;;;;41.75;4.90;;;;;;;1.72;48.81;100451.47;6224096;23;20102;-86
2022/11/14 08:14:33;;;;;;;31.63;2.83;;;;;;;1.82;48.81;100474.19;6245256;23;20027;-89
2022/11/14 08:17:19;;;;;;;12.45;2.53;;;;;;;1.97;49.14;100479.16;6224053;23;20101;-88
2022/11/14 08:20:06;;;;;;;8.05;1.73;;;;;;;1.56;48.78;100421.41;6245370;23;20024;-94
2022/11/14 08:22:51;;;;;;;9.65;2.35;;;;;;;2.14;48.89;100476.66;6224520;23;20012;-88
2022/11/14 08:25:35;;;;;;;10.43;1.88;;;;;;;1.75;47.77;100415.97;6225233;23;20020;-93
2022/11/14 08:28:20;;;;;;;58.15;7.47;;;;;;;2.01;47.96;100474.13;6239531;23;20016;-88
2022/11/14 08:31:04;;;;;;;102.00;7.18;;;;;;;2.07;47.49;100459.75;6223392;23;20442;-87
2022/11/14 08:33:51;;;;;;;83.18;6.32;;;;;;;1.87;47.13;100451.91;6244838;23;20019;-88
2022/11/14 08:36:35;;;;;;;49.40;4.35;;;;;;;2.13;47.13;100493.91;6246352;23;20154;-90
2022/11/14 08:39:19;;;;;;;12.52;1.75;;;;;;;2.09;47.64;100485.44;6224125;23;20020;-91
2022/11/14 08:42:04;;;;;;;9.60;1.88;;;;;;;1.65;47.75;100454.25;6225249;23;20016;-86
2022/11/14 08:44:49;;;;;;;14.07;2.38;;;;;;;1.87;47.86;100493.19;6224881;23;20023;-93
2022/11/14 08:47:34;;;;;;;7.65;2.17;;;;;;;1.91;49.02;100495.44;6224175;23;20016;-89
2022/11/14 08:50:19;;;;;;;9.07;2.15;;;;;;;2.19;48.75;100495.69;6246357;23;20401;-89
2022/11/14 08:53:04;;;;;;;12.07;2.28;;;;;;;2.21;47.28;100460.38;6225391;23;20096;-92
2022/11/14 08:55:48;;;;;;;11.52;2.00;;;;;;;2.19;47.66;100465.19;6223985;23;20340;-89
2022/11/14 08:58:33;;;;;;;21.42;3.13;;;;;;;2.21;46.46;100474.69;6224126;23;20026;-90
2022/11/14 09:01:18;;;;;;;8.43;1.80;;;;;;;2.53;46.59;100498.72;6198562;23;20016;-89
2022/11/14 09:04:03;;;;;;;14.65;2.40;;;;;;;2.19;46.71;100505.66;6224453;23;20027;-86
2022/11/14 09:06:48;;;;;;;38.42;2.83;;;;;;;2.02;46.84;100482.00;6197922;23;20066;-88
2022/11/14 09:09:33;;;;;;;14.02;2.00;;;;;;;2.06;46.58;100474.28;6198506;23;20016;-87
2022/11/14 09:12:17;;;;;;;17.05;2.88;;;;;;;1.96;46.57;100455.94;6200061;23;20020;-91
2022/11/14 09:15:02;;;;;;;17.20;2.95;;;;;;;2.30;46.71;100472.50;6198582;23;20024;-88
2022/11/14 09:17:47;;;;;;;35.67;4.15;;;;;;;2.31;46.77;100455.25;6199595;23;20087;-88
2022/11/14 09:20:31;;;;;;;75.18;6.68;;;;;;;2.50;46.26;100485.69;6200448;23;20024;-89
2022/11/14 09:23:16;;;;;;;19.83;4.32;;;;;;;2.45;46.87;100454.00;6198825;23;20020;-88
2022/11/14 09:26:06;;;;;;;12.70;1.88;;;;;;;2.65;46.09;100494.19;6198291;23;20115;-90
2022/11/14 09:28:50;;;;;;;7.43;2.28;;;;;;;2.56;46.48;100485.59;6200564;23;20023;-92
2022/11/14 09:34:26;;;;;;;8.95;2.13;;;;;;;2.55;46.52;100500.13;6220659;23;20103;-89
2022/11/14 09:37:10;;;;;;;6.38;1.80;;;;;;;2.61;46.47;100479.47;6200870;23;20020;-91
2022/11/14 09:39:55;;;;;;;14.90;2.35;;;;;;;2.62;46.46;100483.84;6201398;23;20086;-89
2022/11/14 09:42:48;;;;;;;9.35;2.55;;;;;;;2.66;47.07;100512.00;6203104;23;20027;-88
2022/11/14 09:45:39;;;;;;;6.47;2.00;;;;;;;2.37;46.96;100477.78;6215850;23;20020;-89
2022/11/14 09:48:29;;;;;;;28.10;3.28;;;;;;;2.55;47.26;100488.50;6232990;23;20020;-92
2022/11/14 09:51:21;;;;;;;11.40;1.90;;;;;;;2.46;46.88;100460.22;6202205;23;20016;-89
2022/11/14 09:54:23;;;;;;;6.75;2.40;;;;;;;2.67;47.08;100494.75;6229375;23;20016;-93
2022/11/14 09:57:19;;;;;;;10.13;1.80;;;;;;;2.59;47.33;100514.00;6203426;23;20020;-91
2022/11/14 10:00:27;;;;;;;8.18;2.50;;;;;;;2.63;47.35;100509.78;6214473;23;20083;-92
2022/11/14 10:03:43;;;;;;;11.18;2.17;;;;;;;2.76;47.50;100508.75;6247106;23;20024;-90
2022/11/14 10:07:01;;;;;;;6.78;2.08;;;;;;;2.76;48.68;100504.16;6226461;23;20016;-90
2022/11/14 10:10:02;;;;;;;24.38;3.10;;;;;;;2.48;47.58;100485.09;6160371;23;20382;-88
2022/11/14 10:13:22;;;;;;;5.28;1.88;;;;;;;2.47;48.24;100469.94;6161453;23;20024;-92
2022/11/14 10:16:37;;;;;;;17.55;2.50;;;;;;;2.73;48.06;100506.50;6164392;23;20017;-90
2022/11/14 10:19:32;;;;;;;11.35;2.25;;;;;;;2.62;48.34;100493.81;6164694;23;20040;-89
2022/11/14 10:22:36;;;;;;;9.40;2.42;;;;;;;2.92;47.68;100499.97;6161896;23;20104;-91
2022/11/14 10:25:25;;;;;;;16.92;2.38;;;;;;;3.16;47.58;100491.88;6164922;23;20024;-86
2022/11/14 10:28:21;;;;;;;14.90;2.83;;;;;;;3.10;47.44;100500.91;6184981;23;20355;-87
2022/11/14 10:31:42;;;;;;;12.05;2.70;;;;;;;2.99;47.65;100500.69;6164755;23;20669;-89
2022/11/14 10:34:53;;;;;;;8.25;2.28;;;;;;;2.70;47.42;100488.88;6165877;23;20027;-89
2022/11/14 10:37:52;;;;;;;9.02;2.30;;;;;;;2.86;47.41;100484.69;6163766;23;20021;-89
2022/11/14 10:40:49;;;;;;;9.38;2.30;;;;;;;2.72;47.38;100458.97;6164523;23;20052;-89
2022/11/14 10:43:42;;;;;;;15.45;2.35;;;;;;;2.81;46.73;100471.06;6158287;23;20031;-87
2022/11/14 10:46:40;;;;;;;20.45;2.55;;;;;;;2.78;47.71;100455.31;6207665;23;20023;-86
2022/11/14 10:49:25;;;;;;;11.30;2.50;;;;;;;2.81;47.39;100431.41;6224897;23;20126;-87
2022/11/14 10:52:14;;;;;;;11.63;2.40;;;;;;;3.02;46.55;100464.28;6225391;23;20020;-86
2022/11/14 10:55:06;;;;;;;10.27;2.13;;;;;;;3.06;46.63;100470.84;6247632;23;20027;-87
2022/11/14 10:57:50;;;;;;;9.05;2.22;;;;;;;2.58;46.07;100407.06;6247491;23;20078;-93
2022/11/14 11:00:35;;;;;;;11.10;3.00;;;;;;;2.69;46.67;100437.84;6262193;23;20016;-89
2022/11/14 11:03:38;;;;;;;14.65;3.20;;;;;;;3.07;46.94;100453.56;6246171;23;20035;-89
2022/11/14 11:06:25;;;;;;;9.48;1.92;;;;;;;3.01;46.37;100436.44;6224660;23;20023;-92
2022/11/14 11:12:23;;;;;;;6.15;1.75;;;;;;;2.94;46.00;100440.31;6247413;23;20016;-87
2022/11/14 11:15:22;;;;;;;6.38;2.22;;;;;;;3.19;46.58;100467.91;6246677;23;20016;-86
2022/11/14 11:18:21;;;;;;;11.55;2.22;;;;;;;3.42;46.53;100471.66;6247422;23;20020;-86
2022/11/14 11:21:06;;;;;;;10.35;2.38;;;;;;;3.44;45.59;100475.72;6224238;23;20024;-86
2022/11/14 11:23:53;;;;;;;15.88;2.50;;;;;;;3.18;46.14;100436.56;6223132;23;20031;-87
2022/11/14 11:26:38;;;;;;;29.00;2.78;;;;;;;3.32;46.58;100430.91;6245638;23;20043;-89
2022/11/14 11:29:23;;;;;;;16.10;2.25;;;;;;;3.53;46.21;100454.56;6245789;23;20016;-88
2022/11/14 11:32:08;;;;;;;8.00;2.08;;;;;;;3.48;46.01;100454.50;6225319;23;20023;-87
2022/11/14 11:34:54;;;;;;;27.88;2.88;;;;;;;3.37;46.33;100474.22;6224688;23;20098;-90
2022/11/14 11:37:53;;;;;;;7.78;2.35;;;;;;;3.17;46.29;100440.28;6224712;23;20100;-87
2022/11/14 11:40:40;;;;;;;14.90;3.13;;;;;;;3.12;46.72;100450.19;6224712;23;20107;-90
2022/11/14 11:43:44;;;;;;;9.02;2.85;;;;;;;3.37;47.02;100483.16;6245890;23;20026;-89
2022/11/14 11:46:41;;;;;;;8.20;2.88;;;;;;;3.45;47.33;100488.22;6246110;23;20024;-88
2022/11/14 11:49:29;;;;;;;18.13;3.35;;;;;;;3.31;46.00;100481.38;6224176;23;20335;-90
2022/11/14 11:52:32;;;;;;;21.08;2.58;;;;;;;2.81;47.23;100435.94;6224076;23;20024;-91
2022/11/14 11:55:22;;;;;;;21.50;3.28;;;;;;;3.10;47.11;100471.19;6223836;23;20020;-89
2022/11/14 11:58:24;;;;;;;22.15;4.68;;;;;;;3.19;47.26;100481.41;6245327;23;20016;-89
2022/11/14 12:01:14;;;;;;;34.85;3.70;;;;;;;3.11;47.92;100460.13;6245988;23;20055;-89
2022/11/14 12:04:02;;;;;;;19.80;3.30;;;;;;;3.13;47.27;100443.72;6246016;23;20024;-92
2022/11/14 12:07:11;;;;;;;12.93;3.28;;;;;;;3.19;45.91;100456.28;6223850;23;20339;-88
2022/11/14 12:10:00;;;;;;;70.32;7.28;;;;;;;3.13;45.93;100441.00;6223587;23;20113;-91
2022/11/14 12:12:57;;;;;;;25.00;3.22;;;;;;;3.42;46.20;100485.97;6245974;23;20020;-91
2022/11/14 12:16:14;;;;;;;11.38;2.70;;;;;;;2.69;46.98;100389.25;6249307;23;20012;-93
2022/11/14 12:19:16;;;;;;;16.23;2.83;;;;;;;3.28;47.08;100484.59;6237915;23;20076;-91
2022/11/14 12:22:25;;;;;;;35.13;4.20;;;;;;;3.28;47.63;100485.41;6224195;23;20155;-90
2022/11/14 12:26:02;;;;;;;23.92;3.00;;;;;;;3.26;47.51;100487.53;6223446;23;20020;-87
2022/11/14 12:28:58;;;;;;;25.85;4.13;;;;;;;3.18;47.28;100487.88;6162002;23;20075;-87
2022/11/14 12:31:44;;;;;;;12.10;3.05;;;;;;;3.17;47.75;100493.50;6181357;23;20056;-89
2022/11/14 12:34:32;;;;;;;9.70;2.70;;;;;;;3.16;48.00;100492.69;6159971;23;20020;-87
2022/11/14 12:37:32;;;;;;;12.13;3.05;;;;;;;2.92;47.46;100443.25;6160751;23;20017;-87
2022/11/14 12:40:31;;;;;;;11.10;2.70;;;;;;;3.08;47.66;100468.75;6182357;23;20447;-87
2022/11/14 12:43:37;;;;;;;8.95;2.75;;;;;;;2.83;48.15;100456.28;6157347;23;20025;-87
2022/11/14 12:46:21;;;;;;;10.48;2.63;;;;;;;3.02;47.90;100461.56;6160914;23;20044;-87
2022/11/14 12:49:55;;;;;;;18.75;2.60;;;;;;;3.22;47.52;100489.06;6156435;23;20017;-88
2022/11/14 12:52:43;;;;;;;7.75;2.72;;;;;;;3.28;47.48;100487.28;6102415;23;20018;-88
2022/11/14 12:55:50;;;;;;;25.08;2.95;;;;;;;3.17;46.96;100486.22;6124467;23;20010;-86
2022/11/14 12:58:49;;;;;;;19.08;2.97;;;;;;;2.96;46.85;100487.63;6122023;23;20421;-87
2022/11/14 13:02:12;;;;;;;18.85;3.22;;;;;;;3.04;47.46;100489.97;6142629;23;20093;-89
2022/11/14 13:05:28;;;;;;;19.95;3.10;;;;;;;3.21;47.11;100489.28;6095477;23;20160;-87
2022/11/14 13:08:37;;;;;;;18.67;2.78;;;;;;;3.08;47.29;100484.09;6103438;23;20653;-84
2022/11/14 13:21:44;;;;;;;20.83;2.65;;;;;;;2.98;46.49;100492.78;6101741;23;20014;-92
2022/11/14 13:24:57;;;;;;;13.70;3.05;;;;;;;2.83;47.53;100494.06;6097466;23;20032;-91
2022/11/14 13:27:41;;;;;;;20.35;2.60;;;;;;;2.54;47.62;100446.38;6105085;23;20045;-85
2022/11/14 13:31:02;;;;;;;16.27;2.60;;;;;;;2.65;48.19;100482.53;6153204;23;20444;-83
2022/11/14 13:33:59;;;;;;;22.48;3.42;;;;;;;2.64;48.30;100464.69;6132697;23;20025;-87
2022/11/14 13:37:10;;;;;;;16.42;2.58;;;;;;;2.67;47.92;100472.34;6142244;23;20045;-89
2022/11/14 13:40:33;;;;;;;8.57;1.80;;;;;;;2.75;48.67;100483.63;6165054;23;20070;-87
2022/11/14 13:43:37;;;;;;;10.20;2.92;;;;;;;2.77;48.16;100494.19;6244814;23;20095;-85
2022/11/14 13:46:40;;;;;;;13.57;1.80;;;;;;;2.75;48.52;100488.22;6245508;23;20020;-93
2022/11/14 13:49:48;;;;;;;15.68;3.10;;;;;;;2.78;48.22;100490.41;6247209;23;20035;-84
2022/11/14 13:52:38;;;;;;;9.38;1.92;;;;;;;2.57;48.89;100449.44;6244105;23;20024;-90
2022/11/14 13:55:52;;;;;;;7.32;1.75;;;;;;;2.65;48.90;100482.53;6248240;23;20016;-90
2022/11/14 13:58:45;;;;;;;18.17;2.97;;;;;;;2.68;48.44;100487.47;6247153;23;20458;-83
2022/11/14 14:02:02;;;;;;;18.98;3.25;;;;;;;2.45;49.26;100485.53;6246888;23;20102;-88
2022/11/14 14:05:12;;;;;;;21.05;3.20;;;;;;;2.31;49.89;100457.94;6196534;23;20020;-83
2022/11/14 14:08:27;;;;;;;14.40;2.15;;;;;;;2.42;49.42;100489.53;6244687;23;20012;-82
2022/11/14 14:11:35;;;;;;;18.92;3.15;;;;;;;2.44;49.98;100484.72;6201798;23;20024;-85
2022/11/14 14:14:43;;;;;;;36.97;3.40;;;;;;;2.46;49.73;100488.03;6221235;23;20016;-90
2022/11/14 14:17:42;;;;;;;30.95;3.60;;;;;;;2.58;49.76;100482.63;6223249;23;20019;-92
2022/11/14 14:20:29;;;;;;;52.47;4.40;;;;;;;2.64;49.34;100480.91;6228024;23;20023;-87